Time;durP1;ratioP1;P1;durP2;ratioP2;P2;SDS_P1;SDS_P2;PMS_P1;PMS_P2;Temp;Humidity;BMP_temperature;BMP_pressure;BME280_temperature;BME280_humidity;BME280_pressure;Samples;Min_cycle;Max_cycle;Signal;HPM_P1;HPM_P2
2022/11/14 00:01:57;;;;;;;;;52.00;42.00;;;;;;;;4979039;28;45399;-61
2022/11/14 00:04:23;;;;;;;;;49.00;40.00;;;;;;;;4979170;28;45390;-63
2022/11/14 00:06:48;;;;;;;;;55.33;43.00;;;;;;;;4978746;28;45391;-61
2022/11/14 00:09:13;;;;;;;;;49.67;38.33;;;;;;;;4978116;28;45433;-61
2022/11/14 00:11:38;;;;;;;;;49.67;40.33;;;;;;;;4979158;28;45370;-61
2022/11/14 00:14:04;;;;;;;;;50.67;40.00;;;;;;;;4978009;28;45334;-61
2022/11/14 00:16:29;;;;;;;;;50.33;41.67;;;;;;;;4978456;28;46406;-61
2022/11/14 00:18:54;;;;;;;;;47.67;37.00;;;;;;;;4979205;28;45411;-61
2022/11/14 00:21:19;;;;;;;;;53.00;41.33;;;;;;;;4978974;28;45798;-61
2022/11/14 00:23:45;;;;;;;;;53.67;40.33;;;;;;;;4978807;28;45438;-61
2022/11/14 00:26:10;;;;;;;;;56.67;42.00;;;;;;;;4978394;28;46703;-61
2022/11/14 00:28:35;;;;;;;;;53.33;43.33;;;;;;;;4978618;28;45354;-61
2022/11/14 00:31:00;;;;;;;;;48.33;40.00;;;;;;;;4978588;28;45613;-61
2022/11/14 00:33:25;;;;;;;;;51.33;39.00;;;;;;;;4979126;28;45392;-61
2022/11/14 00:35:51;;;;;;;;;59.00;43.33;;;;;;;;4978506;28;45483;-61
2022/11/14 00:38:17;;;;;;;;;53.33;44.33;;;;;;;;4977666;28;45397;-61
2022/11/14 00:40:42;;;;;;;;;61.00;45.00;;;;;;;;4978569;28;45456;-61
2022/11/14 00:43:07;;;;;;;;;53.00;40.67;;;;;;;;4978832;28;45529;-61
2022/11/14 00:45:32;;;;;;;;;53.00;40.67;;;;;;;;4978495;28;46384;-60
2022/11/14 00:47:57;;;;;;;;;47.67;39.67;;;;;;;;4978593;28;45441;-61
2022/11/14 00:50:23;;;;;;;;;53.00;41.33;;;;;;;;4978412;28;45405;-61
2022/11/14 00:52:48;;;;;;;;;51.67;44.00;;;;;;;;4978250;28;45318;-61
2022/11/14 00:55:13;;;;;;;;;52.67;40.67;;;;;;;;4977302;28;46414;-61
2022/11/14 00:57:38;;;;;;;;;56.33;44.00;;;;;;;;4978576;28;45484;-61
2022/11/14 01:00:05;;;;;;;;;52.33;42.67;;;;;;;;4977085;28;45413;-61
2022/11/14 01:02:30;;;;;;;;;55.33;43.67;;;;;;;;4978652;28;45441;-61
2022/11/14 01:04:55;;;;;;;;;55.67;41.33;;;;;;;;4978150;28;45656;-61
2022/11/14 01:07:20;;;;;;;;;50.33;41.00;;;;;;;;4978363;28;45533;-61
2022/11/14 01:09:46;;;;;;;;;50.33;41.00;;;;;;;;4978349;28;45434;-61
2022/11/14 01:12:11;;;;;;;;;50.33;39.00;;;;;;;;4978242;28;45492;-61
2022/11/14 01:14:36;;;;;;;;;59.33;45.00;;;;;;;;4977785;28;47221;-61
2022/11/14 01:17:01;;;;;;;;;53.33;43.33;;;;;;;;4977538;28;45478;-61
2022/11/14 01:19:26;;;;;;;;;52.67;42.67;;;;;;;;4977262;28;46134;-61
2022/11/14 01:21:52;;;;;;;;;57.33;43.00;;;;;;;;4978566;28;45411;-61
2022/11/14 01:24:17;;;;;;;;;54.33;39.00;;;;;;;;4977965;28;45633;-61
2022/11/14 01:26:42;;;;;;;;;60.67;45.00;;;;;;;;4977069;28;45374;-61
2022/11/14 01:29:07;;;;;;;;;56.00;43.67;;;;;;;;4978008;28;45375;-61
2022/11/14 01:31:32;;;;;;;;;53.33;41.33;;;;;;;;4977909;28;45522;-61
2022/11/14 01:33:58;;;;;;;;;53.67;44.33;;;;;;;;4978173;28;46214;-61
2022/11/14 01:36:23;;;;;;;;;60.00;43.00;;;;;;;;4976502;28;45508;-61
2022/11/14 01:38:52;;;;;;;;;45.67;38.67;;;;;;;;4978346;28;45406;-61
2022/11/14 01:41:18;;;;;;;;;59.00;45.00;;;;;;;;4977778;28;45480;-61
2022/11/14 01:43:43;;;;;;;;;60.00;45.00;;;;;;;;4977753;28;45418;-61
2022/11/14 01:46:17;;;;;;;;;53.00;42.67;;;;;;;;4977740;28;45415;-61
2022/11/14 01:48:45;;;;;;;;;62.00;45.33;;;;;;;;4977497;28;45362;-61
2022/11/14 01:51:17;;;;;;;;;42.50;36.00;;;;;;;;4976609;28;45494;-60
2022/11/14 01:53:43;;;;;;;;;56.00;43.00;;;;;;;;4977692;28;46883;-61
2022/11/14 01:56:10;;;;;;;;;46.00;40.00;;;;;;;;4977331;28;45466;-61
2022/11/14 01:58:38;;;;;;;;;53.00;41.00;;;;;;;;4977711;28;45370;-61
2022/11/14 02:01:04;;;;;;;;;47.33;39.67;;;;;;;;4976870;28;45418;-61
2022/11/14 02:03:30;;;;;;;;;55.33;41.33;;;;;;;;4976807;28;47044;-61
2022/11/14 02:05:55;;;;;;;;;49.33;39.33;;;;;;;;4975663;28;45386;-61
2022/11/14 02:08:21;;;;;;;;;48.00;38.33;;;;;;;;4977236;28;45382;-61
2022/11/14 02:10:46;;;;;;;;;52.33;39.33;;;;;;;;4977665;28;45491;-61
2022/11/14 02:13:12;;;;;;;;;33.00;29.67;;;;;;;;4976773;28;46711;-61
2022/11/14 02:15:37;;;;;;;;;46.67;40.33;;;;;;;;4959081;28;45777;-61
2022/11/14 02:18:02;;;;;;;;;44.00;39.33;;;;;;;;4976986;28;45943;-61
2022/11/14 02:20:31;;;;;;;;;44.33;39.33;;;;;;;;4977602;28;45301;-61
2022/11/14 02:22:57;;;;;;;;;41.67;38.33;;;;;;;;4976890;28;47300;-61
2022/11/14 02:25:22;;;;;;;;;46.67;39.00;;;;;;;;4976611;28;45153;-61
2022/11/14 02:27:48;;;;;;;;;45.00;38.67;;;;;;;;4977051;28;45786;-61
2022/11/14 02:30:15;;;;;;;;;41.33;36.67;;;;;;;;4977081;28;45363;-61
2022/11/14 02:32:40;;;;;;;;;37.00;33.33;;;;;;;;4976802;28;45504;-61
2022/11/14 02:35:05;;;;;;;;;35.33;33.67;;;;;;;;4977177;28;45440;-61
2022/11/14 02:37:31;;;;;;;;;34.33;27.33;;;;;;;;4977082;28;45228;-61
2022/11/14 02:39:56;;;;;;;;;36.33;30.33;;;;;;;;4980561;28;45421;-62
2022/11/14 02:42:21;;;;;;;;;37.67;33.67;;;;;;;;4980349;28;45426;-61
2022/11/14 02:44:46;;;;;;;;;38.00;32.67;;;;;;;;4980662;28;45832;-61
2022/11/14 02:47:11;;;;;;;;;32.67;32.67;;;;;;;;4980227;28;45479;-60
2022/11/14 02:49:37;;;;;;;;;41.00;36.00;;;;;;;;4980642;28;45454;-61
2022/11/14 02:52:02;;;;;;;;;25.00;24.00;;;;;;;;4980195;28;47631;-61
2022/11/14 02:54:27;;;;;;;;;33.33;28.67;;;;;;;;4979446;28;45390;-61
2022/11/14 02:56:52;;;;;;;;;38.33;32.67;;;;;;;;4980453;28;45719;-61
2022/11/14 02:59:18;;;;;;;;;31.67;30.00;;;;;;;;4980688;28;45430;-61
2022/11/14 03:01:43;;;;;;;;;30.67;30.67;;;;;;;;4979856;28;46681;-61
2022/11/14 03:04:08;;;;;;;;;36.67;30.00;;;;;;;;4980046;28;45307;-60
2022/11/14 03:06:34;;;;;;;;;37.33;32.33;;;;;;;;4980307;28;45303;-61
2022/11/14 03:08:59;;;;;;;;;43.00;36.00;;;;;;;;4980103;28;45533;-61
2022/11/14 03:11:24;;;;;;;;;29.00;25.00;;;;;;;;4979010;28;46442;-61
2022/11/14 03:13:49;;;;;;;;;39.33;32.67;;;;;;;;4980247;28;45454;-61
2022/11/14 03:16:15;;;;;;;;;30.00;26.67;;;;;;;;4980001;28;45370;-61
2022/11/14 03:18:40;;;;;;;;;27.00;26.33;;;;;;;;4979518;28;45367;-61
2022/11/14 03:21:05;;;;;;;;;40.33;30.00;;;;;;;;4979873;28;45438;-61
2022/11/14 03:23:31;;;;;;;;;30.33;28.67;;;;;;;;4979563;28;45360;-63
2022/11/14 03:25:58;;;;;;;;;37.00;31.33;;;;;;;;4979853;28;45375;-61
2022/11/14 03:28:23;;;;;;;;;34.67;31.67;;;;;;;;4978754;28;45552;-61
2022/11/14 03:30:48;;;;;;;;;39.33;31.00;;;;;;;;4979925;28;45424;-61
2022/11/14 03:33:14;;;;;;;;;32.00;29.33;;;;;;;;4979643;28;45454;-61
2022/11/14 03:35:41;;;;;;;;;37.00;34.67;;;;;;;;4980090;28;45481;-61
2022/11/14 03:38:06;;;;;;;;;33.33;29.67;;;;;;;;4980284;28;45832;-61
2022/11/14 03:40:31;;;;;;;;;43.67;35.33;;;;;;;;4981069;28;46206;-61
2022/11/14 03:42:56;;;;;;;;;38.33;32.33;;;;;;;;4999326;28;45699;-61
2022/11/14 03:45:22;;;;;;;;;36.67;28.00;;;;;;;;4988327;28;45496;-61
2022/11/14 03:47:47;;;;;;;;;33.33;30.00;;;;;;;;4980000;28;45425;-61
2022/11/14 03:50:12;;;;;;;;;37.00;34.67;;;;;;;;4978516;28;46441;-60
2022/11/14 03:52:37;;;;;;;;;32.67;24.33;;;;;;;;4979008;28;45776;-60
2022/11/14 03:55:03;;;;;;;;;35.33;28.67;;;;;;;;4979511;28;45516;-60
2022/11/14 03:57:28;;;;;;;;;37.00;29.00;;;;;;;;4979770;28;45664;-61
2022/11/14 03:59:53;;;;;;;;;30.00;28.67;;;;;;;;4979441;28;47567;-61
2022/11/14 04:02:18;;;;;;;;;41.00;32.33;;;;;;;;4977212;28;45385;-60
2022/11/14 04:04:43;;;;;;;;;40.00;34.00;;;;;;;;4978743;28;45390;-60
2022/11/14 04:07:09;;;;;;;;;28.67;21.33;;;;;;;;4979538;28;45390;-60
2022/11/14 04:09:34;;;;;;;;;32.33;29.67;;;;;;;;4979192;28;46324;-61
2022/11/14 04:11:59;;;;;;;;;34.67;27.00;;;;;;;;4979365;28;45413;-61
2022/11/14 04:14:24;;;;;;;;;36.00;32.00;;;;;;;;4978663;28;45312;-61
2022/11/14 04:16:49;;;;;;;;;34.67;28.67;;;;;;;;4978730;28;45450;-61
2022/11/14 04:19:15;;;;;;;;;34.33;30.00;;;;;;;;4978888;28;45598;-61
2022/11/14 04:21:40;;;;;;;;;30.67;25.67;;;;;;;;4978966;28;45493;-61
2022/11/14 04:24:05;;;;;;;;;36.33;32.67;;;;;;;;4979244;28;45456;-61
2022/11/14 04:26:30;;;;;;;;;52.67;31.67;;;;;;;;4979003;28;45484;-61
2022/11/14 04:28:56;;;;;;;;;46.00;35.00;;;;;;;;4978868;28;46377;-61
2022/11/14 04:31:21;;;;;;;;;39.00;36.00;;;;;;;;4978826;28;45236;-61
2022/11/14 04:33:46;;;;;;;;;47.00;36.67;;;;;;;;4978581;28;45514;-61
2022/11/14 04:36:12;;;;;;;;;41.67;34.67;;;;;;;;4979591;28;45534;-62
2022/11/14 04:38:38;;;;;;;;;42.33;36.33;;;;;;;;4992938;28;46680;-62
2022/11/14 04:41:03;;;;;;;;;39.33;34.33;;;;;;;;4978638;28;45715;-62
2022/11/14 04:43:28;;;;;;;;;36.00;28.00;;;;;;;;4978713;28;45389;-60
2022/11/14 04:45:54;;;;;;;;;38.67;30.33;;;;;;;;4979164;28;45252;-60
2022/11/14 04:48:19;;;;;;;;;39.00;32.67;;;;;;;;4978517;28;45417;-63
2022/11/14 04:50:45;;;;;;;;;30.33;30.33;;;;;;;;4978291;28;45506;-60
2022/11/14 04:53:10;;;;;;;;;36.33;30.33;;;;;;;;4977511;28;45452;-60
2022/11/14 04:55:35;;;;;;;;;32.33;32.33;;;;;;;;4979118;28;45373;-60
2022/11/14 04:58:01;;;;;;;;;39.33;33.00;;;;;;;;4978040;28;45829;-60
2022/11/14 05:00:26;;;;;;;;;28.00;23.67;;;;;;;;4978124;28;45506;-60
2022/11/14 05:02:52;;;;;;;;;35.67;30.00;;;;;;;;4978486;28;45338;-60
2022/11/14 05:05:17;;;;;;;;;32.67;29.67;;;;;;;;4978685;28;45481;-60
2022/11/14 05:07:42;;;;;;;;;34.00;31.33;;;;;;;;4978289;28;46152;-60
2022/11/14 05:10:08;;;;;;;;;33.33;30.67;;;;;;;;4977034;28;45448;-60
2022/11/14 05:12:33;;;;;;;;;30.00;25.00;;;;;;;;4978666;28;45639;-60
2022/11/14 05:14:58;;;;;;;;;27.00;25.33;;;;;;;;4978312;28;45454;-60
2022/11/14 05:17:23;;;;;;;;;27.67;27.33;;;;;;;;4977785;28;46203;-61
2022/11/14 05:19:49;;;;;;;;;28.67;22.00;;;;;;;;4978231;28;45426;-60
2022/11/14 05:22:14;;;;;;;;;33.33;27.00;;;;;;;;4978373;28;45335;-60
2022/11/14 05:24:39;;;;;;;;;34.00;30.33;;;;;;;;4978270;28;45398;-60
2022/11/14 05:27:04;;;;;;;;;39.67;33.33;;;;;;;;4976904;28;46734;-60
2022/11/14 05:29:30;;;;;;;;;29.33;29.33;;;;;;;;4977672;28;45434;-60
2022/11/14 05:31:56;;;;;;;;;33.33;30.00;;;;;;;;4978435;28;45368;-60
2022/11/14 05:34:21;;;;;;;;;36.33;30.67;;;;;;;;4977625;28;45484;-60
2022/11/14 05:36:47;;;;;;;;;23.67;21.00;;;;;;;;4976693;28;45453;-60
2022/11/14 05:39:12;;;;;;;;;33.00;29.67;;;;;;;;4977974;28;45267;-60
2022/11/14 05:41:37;;;;;;;;;38.33;32.67;;;;;;;;4976953;28;45354;-61
2022/11/14 05:44:03;;;;;;;;;33.67;29.67;;;;;;;;4977919;28;45346;-61
2022/11/14 05:46:28;;;;;;;;;27.67;23.67;;;;;;;;4977912;28;45375;-61
2022/11/14 05:48:53;;;;;;;;;34.00;29.00;;;;;;;;4977851;28;45416;-61
2022/11/14 05:51:18;;;;;;;;;32.00;29.00;;;;;;;;4977742;28;45405;-61
2022/11/14 05:53:44;;;;;;;;;28.33;26.00;;;;;;;;4977662;28;45485;-61
2022/11/14 05:56:10;;;;;;;;;29.00;24.67;;;;;;;;4977773;28;45742;-61
2022/11/14 05:58:35;;;;;;;;;28.67;25.00;;;;;;;;4977661;28;45489;-61
2022/11/14 06:01:02;;;;;;;;;26.33;21.67;;;;;;;;4976524;28;45624;-61
2022/11/14 06:03:31;;;;;;;;;25.67;23.00;;;;;;;;4977497;28;45521;-61
2022/11/14 06:05:58;;;;;;;;;33.33;25.67;;;;;;;;4977298;28;45335;-61
2022/11/14 06:08:23;;;;;;;;;28.00;20.67;;;;;;;;4977408;28;45456;-61
2022/11/14 06:10:48;;;;;;;;;28.33;22.00;;;;;;;;4977132;28;45365;-61
2022/11/14 06:13:14;;;;;;;;;28.00;21.67;;;;;;;;4977033;28;45424;-61
2022/11/14 06:15:39;;;;;;;;;28.33;26.33;;;;;;;;4975846;28;45506;-61
2022/11/14 06:18:04;;;;;;;;;24.33;19.33;;;;;;;;4977001;28;45564;-60
2022/11/14 06:20:30;;;;;;;;;25.67;21.33;;;;;;;;4977612;28;45275;-60
2022/11/14 06:22:55;;;;;;;;;24.67;24.67;;;;;;;;4977024;28;45514;-60
2022/11/14 06:25:20;;;;;;;;;23.33;21.67;;;;;;;;4977142;28;45450;-60
2022/11/14 06:27:45;;;;;;;;;22.00;19.00;;;;;;;;4977323;28;45335;-61
2022/11/14 06:30:11;;;;;;;;;25.67;17.67;;;;;;;;4976820;28;45429;-61
2022/11/14 06:32:36;;;;;;;;;23.33;20.33;;;;;;;;4975821;28;45410;-61
2022/11/14 06:35:01;;;;;;;;;29.33;23.00;;;;;;;;4976912;28;45440;-61
2022/11/14 06:37:26;;;;;;;;;22.67;17.67;;;;;;;;4976785;28;45505;-61
2022/11/14 06:39:51;;;;;;;;;23.00;15.67;;;;;;;;4977302;28;45337;-61
2022/11/14 06:42:17;;;;;;;;;22.67;21.67;;;;;;;;4977512;28;45404;-61
2022/11/14 06:44:42;;;;;;;;;24.33;20.67;;;;;;;;4977057;28;46417;-61
2022/11/14 06:47:07;;;;;;;;;21.33;18.33;;;;;;;;4975875;28;45239;-61
2022/11/14 06:49:32;;;;;;;;;19.33;16.00;;;;;;;;4976843;28;45342;-61
2022/11/14 06:51:57;;;;;;;;;23.67;18.00;;;;;;;;4976846;28;45380;-61
2022/11/14 06:54:23;;;;;;;;;20.00;17.33;;;;;;;;4955947;28;46326;-61
2022/11/14 06:56:48;;;;;;;;;20.00;15.33;;;;;;;;4957579;28;45389;-61
2022/11/14 06:59:13;;;;;;;;;14.00;13.67;;;;;;;;4957674;28;45430;-61
2022/11/14 07:01:39;;;;;;;;;20.33;18.00;;;;;;;;4971515;28;45382;-61
2022/11/14 07:04:04;;;;;;;;;19.00;18.00;;;;;;;;4975495;28;46149;-61
2022/11/14 07:06:29;;;;;;;;;19.33;15.67;;;;;;;;4976889;28;45376;-61
2022/11/14 07:08:55;;;;;;;;;23.33;15.33;;;;;;;;4976510;28;45302;-61
2022/11/14 07:11:22;;;;;;;;;21.00;18.33;;;;;;;;4976720;28;45607;-61
2022/11/14 07:13:48;;;;;;;;;18.33;14.00;;;;;;;;4976740;28;45440;-61
2022/11/14 07:16:13;;;;;;;;;13.00;13.00;;;;;;;;4975931;28;45468;-61
2022/11/14 07:18:38;;;;;;;;;28.33;18.00;;;;;;;;4976134;28;45430;-61
2022/11/14 07:21:04;;;;;;;;;17.00;12.00;;;;;;;;4974593;28;45338;-61
2022/11/14 07:23:30;;;;;;;;;15.00;10.67;;;;;;;;4975610;28;47020;-61
2022/11/14 07:25:59;;;;;;;;;25.00;18.00;;;;;;;;4978445;28;45477;-61
2022/11/14 07:28:24;;;;;;;;;23.00;14.33;;;;;;;;4979216;28;45315;-61
2022/11/14 07:30:49;;;;;;;;;18.00;15.00;;;;;;;;4979586;28;45350;-60
2022/11/14 07:33:14;;;;;;;;;19.00;17.00;;;;;;;;4975353;28;45560;-61
2022/11/14 07:35:39;;;;;;;;;27.67;27.00;;;;;;;;4978111;28;45589;-61
2022/11/14 07:38:05;;;;;;;;;20.00;16.33;;;;;;;;4979343;28;45437;-61
2022/11/14 07:40:30;;;;;;;;;20.00;15.67;;;;;;;;4979880;28;45437;-61
2022/11/14 07:42:59;;;;;;;;;23.33;16.67;;;;;;;;4979510;28;45446;-61
2022/11/14 07:45:24;;;;;;;;;15.00;14.00;;;;;;;;4979467;28;46361;-61
2022/11/14 07:47:52;;;;;;;;;22.33;18.33;;;;;;;;4979505;28;45388;-61
2022/11/14 07:50:18;;;;;;;;;28.33;20.67;;;;;;;;4979835;28;45810;-61
2022/11/14 07:52:43;;;;;;;;;18.00;14.67;;;;;;;;4979135;28;45587;-61
2022/11/14 07:55:08;;;;;;;;;18.33;16.33;;;;;;;;4979490;28;45429;-61
2022/11/14 07:57:35;;;;;;;;;13.67;12.33;;;;;;;;4979436;28;45382;-61
2022/11/14 08:00:00;;;;;;;;;17.33;13.33;;;;;;;;4979789;28;45365;-61
2022/11/14 08:02:25;;;;;;;;;20.67;14.00;;;;;;;;4979369;28;45450;-61
2022/11/14 08:04:50;;;;;;;;;15.67;13.00;;;;;;;;4979409;28;45362;-61
2022/11/14 08:07:15;;;;;;;;;16.67;16.67;;;;;;;;4962140;28;45293;-61
2022/11/14 08:09:41;;;;;;;;;22.33;21.67;;;;;;;;4961838;28;45490;-61
2022/11/14 08:12:06;;;;;;;;;18.00;17.67;;;;;;;;4979265;28;46626;-61
2022/11/14 08:14:31;;;;;;;;;18.33;16.67;;;;;;;;4979395;28;45336;-61
2022/11/14 08:16:56;;;;;;;;;21.00;14.00;;;;;;;;4979458;28;45463;-61
2022/11/14 08:19:22;;;;;;;;;18.67;17.00;;;;;;;;4979502;28;45386;-61
2022/11/14 08:21:47;;;;;;;;;11.33;9.00;;;;;;;;4979090;28;47270;-60
2022/11/14 08:24:12;;;;;;;;;20.33;18.33;;;;;;;;4978786;28;45376;-61
2022/11/14 08:26:38;;;;;;;;;28.67;19.33;;;;;;;;4979369;28;45290;-61
2022/11/14 08:29:03;;;;;;;;;24.33;17.33;;;;;;;;4979372;28;45280;-60
2022/11/14 08:31:29;;;;;;;;;22.33;18.67;;;;;;;;4978827;28;46384;-61
2022/11/14 08:33:54;;;;;;;;;15.67;14.00;;;;;;;;4978742;28;45431;-61
2022/11/14 08:36:19;;;;;;;;;26.67;20.67;;;;;;;;4978353;28;45489;-61
2022/11/14 08:38:44;;;;;;;;;24.00;18.33;;;;;;;;4979258;28;45284;-60
2022/11/14 08:41:10;;;;;;;;;19.00;14.00;;;;;;;;4978891;28;45454;-60
2022/11/14 08:43:35;;;;;;;;;25.00;22.33;;;;;;;;4978902;28;45234;-60
2022/11/14 08:46:01;;;;;;;;;25.00;17.33;;;;;;;;4978707;28;45432;-60
2022/11/14 08:48:27;;;;;;;;;16.67;15.33;;;;;;;;4979144;28;45302;-63
2022/11/14 08:50:52;;;;;;;;;24.33;20.33;;;;;;;;4978711;28;47427;-60
2022/11/14 08:53:17;;;;;;;;;26.67;24.67;;;;;;;;4978253;28;45270;-61
2022/11/14 08:55:43;;;;;;;;;24.33;18.67;;;;;;;;4978843;28;45335;-60
2022/11/14 08:58:08;;;;;;;;;25.67;21.67;;;;;;;;4979075;28;45461;-60
2022/11/14 09:00:33;;;;;;;;;30.33;23.33;;;;;;;;4978382;28;46567;-62
2022/11/14 09:02:59;;;;;;;;;18.67;18.00;;;;;;;;4978544;28;45460;-63
2022/11/14 09:05:24;;;;;;;;;21.00;20.67;;;;;;;;4978564;28;45338;-60
2022/11/14 09:07:49;;;;;;;;;29.33;25.67;;;;;;;;4978919;28;45533;-61
2022/11/14 09:10:14;;;;;;;;;30.33;25.67;;;;;;;;4978274;28;46289;-60
2022/11/14 09:12:40;;;;;;;;;27.33;24.67;;;;;;;;4960804;28;45493;-59
2022/11/14 09:15:05;;;;;;;;;26.00;20.33;;;;;;;;4978613;28;45397;-59
2022/11/14 09:17:30;;;;;;;;;25.67;25.33;;;;;;;;4978760;28;45377;-59
2022/11/14 09:19:56;;;;;;;;;23.67;15.33;;;;;;;;4978318;28;45610;-59
2022/11/14 09:22:21;;;;;;;;;27.33;24.67;;;;;;;;4978297;28;45413;-59
2022/11/14 09:24:46;;;;;;;;;26.00;19.67;;;;;;;;4978161;28;45290;-58
2022/11/14 09:27:12;;;;;;;;;29.33;22.67;;;;;;;;4978183;28;45401;-59
2022/11/14 09:29:37;;;;;;;;;24.67;23.67;;;;;;;;4977927;28;45552;-59
2022/11/14 09:32:02;;;;;;;;;25.67;19.67;;;;;;;;4977738;28;45409;-61
2022/11/14 09:34:28;;;;;;;;;20.67;19.00;;;;;;;;4978127;28;45393;-61
2022/11/14 09:36:53;;;;;;;;;42.00;30.00;;;;;;;;4978268;28;45232;-61
2022/11/14 09:39:18;;;;;;;;;30.67;26.33;;;;;;;;4977863;28;46312;-61
2022/11/14 09:41:43;;;;;;;;;26.33;25.33;;;;;;;;4977555;28;45439;-61
2022/11/14 09:44:27;;;;;;;;;31.33;26.33;;;;;;;;4978175;28;45461;-61
2022/11/14 09:47:00;;;;;;;;;30.33;26.00;;;;;;;;4977559;28;45283;-61
2022/11/14 09:49:32;;;;;;;;;31.67;27.00;;;;;;;;4976965;28;46279;-62
2022/11/14 09:52:02;;;;;;;;;53.33;39.00;;;;;;;;4977067;28;45393;-62
2022/11/14 09:54:35;;;;;;;;;30.67;26.00;;;;;;;;4977485;28;45307;-62
2022/11/14 09:57:01;;;;;;;;;30.67;27.67;;;;;;;;4977369;28;45422;-62
2022/11/14 09:59:26;;;;;;;;;24.33;23.00;;;;;;;;4977065;28;45321;-62
2022/11/14 10:02:05;;;;;;;;;30.33;27.33;;;;;;;;4977658;28;45401;-62
2022/11/14 10:04:36;;;;;;;;;30.33;26.67;;;;;;;;4977646;28;45310;-62
2022/11/14 10:07:26;;;;;;;;;35.00;27.67;;;;;;;;4977915;28;45489;-61
2022/11/14 10:10:06;;;;;;;;;33.00;27.33;;;;;;;;4976868;28;45458;-61
2022/11/14 10:12:40;;;;;;;;;33.33;27.67;;;;;;;;4977083;28;45479;-62
2022/11/14 10:15:18;;;;;;;;;67.00;51.33;;;;;;;;4977046;28;45341;-62
2022/11/14 10:17:52;;;;;;;;;31.67;27.00;;;;;;;;4977267;28;45367;-61
2022/11/14 10:20:17;;;;;;;;;27.33;27.33;;;;;;;;4976927;28;46265;-62
2022/11/14 10:23:01;;;;;;;;;32.33;26.33;;;;;;;;4976786;28;45482;-61
2022/11/14 10:25:38;;;;;;;;;39.33;30.00;;;;;;;;4977240;28;45418;-62
2022/11/14 10:28:07;;;;;;;;;36.00;29.00;;;;;;;;4977640;28;45479;-62
2022/11/14 10:30:40;;;;;;;;;29.67;27.00;;;;;;;;4976692;28;46588;-62
2022/11/14 10:33:17;;;;;;;;;42.33;32.00;;;;;;;;4977010;28;45360;-62
2022/11/14 10:35:48;;;;;;;;;40.67;31.00;;;;;;;;4977499;28;45410;-61
2022/11/14 10:38:25;;;;;;;;;34.00;29.67;;;;;;;;4977592;28;45477;-62
2022/11/14 10:40:53;;;;;;;;;30.33;26.67;;;;;;;;4976930;28;45381;-62
2022/11/14 10:43:22;;;;;;;;;45.33;29.33;;;;;;;;4976350;28;45467;-62
2022/11/14 10:45:51;;;;;;;;;37.67;33.00;;;;;;;;4977054;28;45326;-62
2022/11/14 10:48:19;;;;;;;;;40.00;33.33;;;;;;;;4977432;28;45548;-62
2022/11/14 10:50:54;;;;;;;;;33.00;26.00;;;;;;;;4976953;28;45668;-62
2022/11/14 10:53:39;;;;;;;;;28.33;25.00;;;;;;;;4976581;28;45386;-62
2022/11/14 10:56:04;;;;;;;;;41.67;32.00;;;;;;;;4976571;28;45457;-62
2022/11/14 10:58:30;;;;;;;;;31.67;25.67;;;;;;;;4977906;28;45391;-61
2022/11/14 11:00:57;;;;;;;;;29.00;24.33;;;;;;;;4980405;28;46018;-61
2022/11/14 11:03:39;;;;;;;;;37.33;30.67;;;;;;;;4980112;28;45771;-61
2022/11/14 11:06:04;;;;;;;;;30.67;28.67;;;;;;;;4980286;28;45926;-61
2022/11/14 11:11:30;;;;;;;;;21.00;16.33;;;;;;;;4979882;28;45401;-61
2022/11/14 11:13:56;;;;;;;;;28.00;22.67;;;;;;;;4980080;28;45346;-61
2022/11/14 11:16:23;;;;;;;;;36.00;25.67;;;;;;;;4980129;28;45500;-62
2022/11/14 11:18:48;;;;;;;;;35.00;30.00;;;;;;;;4980067;28;45350;-61
2022/11/14 11:21:15;;;;;;;;;38.00;30.00;;;;;;;;4980054;28;45378;-63
2022/11/14 11:23:48;;;;;;;;;33.33;31.00;;;;;;;;4979735;28;45445;-61
2022/11/14 11:26:25;;;;;;;;;34.33;29.00;;;;;;;;4980047;28;45488;-63
2022/11/14 11:29:14;;;;;;;;;40.00;31.00;;;;;;;;4980249;28;45517;-63
2022/11/14 11:31:58;;;;;;;;;30.33;29.33;;;;;;;;4979959;28;46280;-63
2022/11/14 11:34:27;;;;;;;;;33.33;26.67;;;;;;;;4980086;28;45335;-63
2022/11/14 11:37:07;;;;;;;;;33.67;30.33;;;;;;;;4980017;28;45323;-63
2022/11/14 11:39:36;;;;;;;;;32.67;26.00;;;;;;;;4980186;28;45394;-63
2022/11/14 11:42:07;;;;;;;;;24.67;22.33;;;;;;;;4979804;28;45573;-63
2022/11/14 11:44:42;;;;;;;;;37.67;34.00;;;;;;;;4979840;28;45812;-61
2022/11/14 11:47:08;;;;;;;;;31.67;27.33;;;;;;;;4979901;28;45410;-61
2022/11/14 11:49:44;;;;;;;;;30.33;25.33;;;;;;;;4980046;28;45495;-61
2022/11/14 11:52:18;;;;;;;;;35.67;28.67;;;;;;;;4977224;28;46690;-61
2022/11/14 11:55:02;;;;;;;;;35.00;27.33;;;;;;;;4979451;28;45343;-61
2022/11/14 11:57:29;;;;;;;;;40.00;29.33;;;;;;;;4979653;28;45236;-63
2022/11/14 12:00:02;;;;;;;;;37.00;29.00;;;;;;;;4979664;28;45580;-63
2022/11/14 12:02:27;;;;;;;;;32.00;30.67;;;;;;;;4979486;28;46138;-63
2022/11/14 12:04:54;;;;;;;;;37.67;29.00;;;;;;;;4979504;28;45384;-63
2022/11/14 12:07:23;;;;;;;;;30.33;25.67;;;;;;;;4979638;28;45334;-64
2022/11/14 12:09:49;;;;;;;;;26.33;23.00;;;;;;;;4979391;28;45329;-63
2022/11/14 12:12:14;;;;;;;;;24.33;23.00;;;;;;;;4978736;28;47346;-62
2022/11/14 12:14:51;;;;;;;;;35.00;27.67;;;;;;;;4979440;28;45450;-62
2022/11/14 12:17:28;;;;;;;;;52.67;40.67;;;;;;;;4979639;28;45228;-61
2022/11/14 12:20:12;;;;;;;;;23.67;21.33;;;;;;;;4979519;28;45418;-61
2022/11/14 12:23:08;;;;;;;;;34.00;26.33;;;;;;;;4979095;28;46721;-63
2022/11/14 12:25:36;;;;;;;;;23.33;22.00;;;;;;;;4979058;28;45322;-62
2022/11/14 12:28:10;;;;;;;;;22.67;22.00;;;;;;;;4979146;28;45451;-61
2022/11/14 12:30:37;;;;;;;;;19.33;17.33;;;;;;;;4979447;28;45307;-61
2022/11/14 12:33:02;;;;;;;;;16.00;16.00;;;;;;;;4978237;28;46418;-61
2022/11/14 12:35:34;;;;;;;;;31.00;25.00;;;;;;;;4978907;28;45509;-61
2022/11/14 12:38:04;;;;;;;;;21.00;21.00;;;;;;;;4979217;28;45351;-61
2022/11/14 12:40:40;;;;;;;;;28.00;20.00;;;;;;;;4979188;28;45467;-61
2022/11/14 12:43:25;;;;;;;;;23.67;20.67;;;;;;;;4978575;28;46632;-61
2022/11/14 12:45:50;;;;;;;;;27.33;22.67;;;;;;;;4978724;28;45583;-61
2022/11/14 12:48:28;;;;;;;;;29.33;24.00;;;;;;;;4979141;28;45472;-61
2022/11/14 12:50:54;;;;;;;;;27.00;22.33;;;;;;;;4979217;28;45152;-61
2022/11/14 12:53:38;;;;;;;;;24.33;21.00;;;;;;;;4978448;28;45746;-61
2022/11/14 12:56:15;;;;;;;;;28.33;21.67;;;;;;;;4978428;28;45467;-61
2022/11/14 12:58:49;;;;;;;;;26.00;21.33;;;;;;;;4978967;28;45301;-61
2022/11/14 13:01:23;;;;;;;;;30.00;26.00;;;;;;;;4978986;28;45386;-61
2022/11/14 13:03:57;;;;;;;;;27.00;25.33;;;;;;;;4978404;28;46140;-61
2022/11/14 13:06:25;;;;;;;;;35.67;24.00;;;;;;;;4978476;28;45812;-63
2022/11/14 13:08:53;;;;;;;;;23.33;17.67;;;;;;;;4978755;28;45307;-63
2022/11/14 13:21:44;;;;;;;;;25.00;22.33;;;;;;;;4978603;28;45338;-61
2022/11/14 13:22:45;;;;;;;;;34.67;25.67;;;;;;;;4977234;28;45446;-61
2022/11/14 13:25:10;;;;;;;;;25.00;23.00;;;;;;;;4978223;28;45338;-63
2022/11/14 13:27:35;;;;;;;;;26.67;19.67;;;;;;;;4978285;28;45819;-63
2022/11/14 13:30:04;;;;;;;;;28.00;23.33;;;;;;;;4960827;28;45469;-63
2022/11/14 13:32:41;;;;;;;;;30.67;25.67;;;;;;;;4978479;28;45447;-61
2022/11/14 13:35:25;;;;;;;;;37.00;33.00;;;;;;;;4978022;28;45473;-61
2022/11/14 13:37:53;;;;;;;;;33.00;29.33;;;;;;;;4978168;28;45452;-61
2022/11/14 13:40:33;;;;;;;;;30.00;26.67;;;;;;;;4978110;28;45395;-61
2022/11/14 13:43:17;;;;;;;;;28.33;23.00;;;;;;;;4978064;28;45465;-61
2022/11/14 13:45:48;;;;;;;;;25.33;24.33;;;;;;;;4977896;28;46205;-61
2022/11/14 13:48:32;;;;;;;;;27.67;24.33;;;;;;;;4977762;28;45414;-61
2022/11/14 13:51:04;;;;;;;;;30.33;27.33;;;;;;;;4978093;28;45359;-63
2022/11/14 13:53:30;;;;;;;;;36.00;26.67;;;;;;;;4977981;28;45489;-63
2022/11/14 13:55:58;;;;;;;;;26.33;22.67;;;;;;;;4977697;28;47098;-62
2022/11/14 13:58:42;;;;;;;;;31.00;23.33;;;;;;;;4977519;28;45455;-62
2022/11/14 14:01:34;;;;;;;;;30.00;24.67;;;;;;;;4978013;28;45306;-62
2022/11/14 14:04:38;;;;;;;;;31.33;25.33;;;;;;;;4974124;28;45476;-64
2022/11/14 14:07:26;;;;;;;;;25.67;24.67;;;;;;;;4898389;29;46661;-64
2022/11/14 14:10:06;;;;;;;;;69.00;54.67;;;;;;;;4898079;29;45588;-64
2022/11/14 14:12:37;;;;;;;;;45.67;32.00;;;;;;;;4898436;29;45513;-62
2022/11/14 14:15:05;;;;;;;;;31.00;26.33;;;;;;;;4898726;29;46109;-62
2022/11/14 14:17:37;;;;;;;;;32.00;27.33;;;;;;;;4898195;28;45555;-63
2022/11/14 14:20:14;;;;;;;;;32.00;24.67;;;;;;;;4898431;29;45335;-62
2022/11/14 14:22:50;;;;;;;;;25.00;23.67;;;;;;;;4898636;29;45420;-63
2022/11/14 14:25:34;;;;;;;;;26.33;22.00;;;;;;;;4898496;29;45348;-64
2022/11/14 14:28:14;;;;;;;;;29.67;23.33;;;;;;;;4897895;29;46874;-62
2022/11/14 14:30:40;;;;;;;;;28.00;23.00;;;;;;;;4898037;29;45392;-63
2022/11/14 14:33:07;;;;;;;;;29.00;23.67;;;;;;;;4898273;29;45534;-63